createdAt,value
2023-02-12T00:01:09.458Z,7.96
2023-02-12T00:03:36.696Z,7.88
2023-02-12T00:06:03.587Z,7.87
2023-02-12T00:08:30.325Z,7.87
2023-02-12T00:10:57.002Z,7.93
2023-02-12T00:13:24.113Z,7.94
2023-02-12T00:15:53.911Z,7.93
2023-02-12T00:18:20.902Z,7.94
2023-02-12T00:20:47.589Z,7.76
2023-02-12T00:23:14.351Z,7.79
2023-02-12T00:25:42.080Z,7.88
2023-02-12T00:28:08.837Z,7.88
2023-02-12T00:30:36.229Z,7.84
2023-02-12T00:33:03.086Z,7.85
2023-02-12T00:35:29.714Z,7.83
2023-02-12T00:37:56.537Z,7.81
2023-02-12T00:40:23.160Z,7.80
2023-02-12T00:42:49.870Z,7.88
2023-02-12T00:45:17.240Z,7.88
2023-02-12T00:47:44.006Z,7.85
2023-02-12T00:50:11.060Z,7.92
2023-02-12T00:52:37.755Z,7.93
2023-02-12T00:55:05.140Z,7.95
2023-02-12T00:57:33.472Z,7.90
2023-02-12T01:00:04.492Z,7.76
2023-02-12T01:02:31.107Z,7.89
2023-02-12T01:04:58.708Z,7.93
2023-02-12T01:07:25.633Z,7.95
2023-02-12T01:09:52.324Z,7.93
2023-02-12T01:12:19.008Z,7.95
2023-02-12T01:14:46.555Z,7.99
2023-02-12T01:17:13.200Z,7.96
2023-02-12T01:19:39.850Z,7.85
2023-02-12T01:22:06.794Z,7.90
2023-02-12T01:24:33.593Z,7.75
2023-02-12T01:27:00.299Z,7.85
2023-02-12T01:29:28.495Z,7.90
2023-02-12T01:31:55.314Z,8.01
2023-02-12T01:34:22.144Z,7.91
2023-02-12T01:36:48.793Z,7.89
2023-02-12T01:39:15.455Z,7.91
2023-02-12T01:41:45.838Z,7.90
2023-02-12T01:44:18.641Z,7.86
2023-02-12T01:46:47.274Z,7.89
2023-02-12T01:49:21.332Z,7.90
2023-02-12T01:51:52.138Z,7.84
2023-02-12T01:54:20.005Z,7.93
2023-02-12T01:56:49.985Z,7.97
2023-02-12T01:59:16.850Z,7.61
2023-02-12T02:01:43.609Z,7.73
2023-02-12T02:04:13.013Z,7.77
2023-02-12T02:06:57.480Z,7.87
2023-02-12T02:09:24.823Z,7.92
2023-02-12T02:12:22.131Z,7.93
2023-02-12T02:14:50.001Z,7.89
2023-02-12T02:17:25.020Z,7.93
2023-02-12T02:20:27.455Z,7.99
2023-02-12T02:23:12.578Z,7.99
2023-02-12T02:26:16.981Z,7.91
2023-02-12T02:28:52.306Z,7.91
2023-02-12T02:31:43.487Z,7.88
2023-02-12T02:34:22.442Z,7.90
2023-02-12T02:37:02.110Z,7.89
2023-02-12T02:39:46.011Z,7.83
2023-02-12T02:42:39.756Z,7.81
2023-02-12T02:45:19.472Z,7.84
2023-02-12T02:47:50.248Z,7.77
2023-02-12T02:50:25.648Z,7.76
2023-02-12T02:53:03.067Z,7.81
2023-02-12T02:55:33.381Z,7.74
2023-02-12T02:58:04.881Z,7.73
2023-02-12T03:00:40.731Z,7.74
2023-02-12T03:03:12.203Z,7.52
2023-02-12T03:05:43.342Z,7.59
2023-02-12T03:08:24.180Z,7.65
2023-02-12T03:10:57.952Z,7.63
2023-02-12T03:13:35.096Z,7.70
2023-02-12T03:16:28.616Z,7.69
2023-02-12T03:19:23.307Z,7.70
2023-02-12T03:22:00.450Z,7.62
2023-02-12T03:24:40.854Z,7.68
2023-02-12T03:27:17.280Z,7.75
2023-02-12T03:29:44.090Z,7.79
2023-02-12T03:32:22.267Z,7.76
2023-02-12T03:34:57.576Z,7.71
2023-02-12T03:37:30.840Z,7.71
2023-02-12T03:40:04.052Z,7.62
2023-02-12T03:42:41.361Z,7.76
2023-02-12T03:45:17.811Z,7.74
2023-02-12T03:48:08.507Z,7.74
2023-02-12T03:51:03.788Z,7.77
2023-02-12T03:53:31.789Z,7.75
2023-02-12T03:56:06.143Z,7.77
2023-02-12T03:58:34.707Z,7.76
2023-02-12T04:01:01.699Z,7.63
2023-02-12T04:03:29.764Z,7.71
2023-02-12T04:05:56.718Z,7.69
2023-02-12T04:08:24.275Z,7.68
2023-02-12T04:11:09.724Z,7.66
2023-02-12T04:13:50.174Z,7.71
2023-02-12T04:16:24.747Z,7.72
2023-02-12T04:18:51.967Z,7.70
2023-02-12T04:22:00.263Z,7.77
2023-02-12T04:24:56.101Z,7.71
2023-02-12T04:27:36.693Z,7.78
2023-02-12T04:30:14.957Z,7.73
2023-02-12T04:32:42.320Z,7.63
2023-02-12T04:35:15.461Z,7.73
2023-02-12T04:37:45.611Z,7.67
2023-02-12T04:40:14.320Z,7.72
2023-02-12T04:42:45.620Z,7.73
2023-02-12T04:45:26.399Z,7.68
2023-02-12T04:47:53.084Z,7.66
2023-02-12T04:50:19.939Z,7.70
2023-02-12T04:52:47.017Z,7.79
2023-02-12T04:55:14.147Z,7.76
2023-02-12T04:57:40.764Z,7.80
2023-02-12T05:00:09.660Z,7.80
2023-02-12T05:02:36.311Z,7.72
2023-02-12T05:05:03.258Z,7.75
2023-02-12T05:07:30.025Z,7.67
2023-02-12T05:09:56.648Z,7.67
2023-02-12T05:12:23.392Z,7.69
2023-02-12T05:14:50.164Z,7.67
2023-02-12T05:17:16.834Z,7.62
2023-02-12T05:19:43.571Z,7.60
2023-02-12T05:22:10.459Z,7.61
2023-02-12T05:24:37.420Z,7.63
2023-02-12T05:27:04.079Z,7.61
2023-02-12T05:29:30.756Z,7.58
2023-02-12T05:31:57.653Z,7.49
2023-02-12T05:34:24.434Z,7.56
2023-02-12T05:36:51.131Z,7.61
2023-02-12T05:39:17.825Z,7.65
2023-02-12T05:41:44.647Z,7.62
2023-02-12T05:44:15.273Z,7.62
2023-02-12T05:46:42.643Z,7.63
2023-02-12T05:49:09.953Z,7.63
2023-02-12T05:51:36.760Z,7.63
2023-02-12T05:54:06.694Z,7.66
2023-02-12T05:56:38.624Z,7.51
2023-02-12T05:59:07.708Z,7.60
2023-02-12T06:01:36.569Z,7.44
2023-02-12T06:04:05.178Z,7.57
2023-02-12T06:06:32.532Z,7.63
2023-02-12T06:08:59.601Z,7.50
2023-02-12T06:11:26.250Z,7.43
2023-02-12T06:13:52.967Z,7.60
2023-02-12T06:16:27.476Z,7.62
2023-02-12T06:18:55.093Z,7.60
2023-02-12T06:21:23.211Z,7.50
2023-02-12T06:23:50.828Z,7.59
2023-02-12T06:26:20.452Z,7.31
2023-02-12T06:28:47.707Z,7.43
2023-02-12T06:31:21.828Z,7.48
2023-02-12T06:33:48.564Z,7.52
2023-02-12T06:36:15.286Z,7.56
2023-02-12T06:38:42.169Z,7.57
2023-02-12T06:41:12.138Z,7.57
2023-02-12T06:43:39.017Z,7.49
2023-02-12T06:46:06.126Z,7.34
2023-02-12T06:48:32.915Z,7.29
2023-02-12T06:51:11.274Z,7.35
2023-02-12T06:53:37.954Z,7.46
2023-02-12T06:56:06.350Z,7.43
2023-02-12T06:58:33.262Z,7.54
2023-02-12T07:01:21.613Z,7.56
2023-02-12T07:03:50.712Z,7.52
2023-02-12T07:06:21.056Z,7.61
2023-02-12T07:08:47.858Z,7.50
2023-02-12T07:11:15.083Z,7.56
2023-02-12T07:13:42.774Z,7.57
2023-02-12T07:16:12.428Z,7.60
2023-02-12T07:18:39.436Z,7.60
2023-02-12T07:21:07.509Z,7.32
2023-02-12T07:23:34.776Z,7.63
2023-02-12T07:26:04.385Z,7.59
2023-02-12T07:28:33.861Z,7.70
2023-02-12T07:31:07.056Z,7.62
2023-02-12T07:33:33.752Z,7.61
2023-02-12T07:36:04.817Z,7.71
2023-02-12T07:38:31.482Z,7.68
2023-02-12T07:41:10.741Z,7.72
2023-02-12T07:43:37.763Z,7.71
2023-02-12T07:46:12.184Z,7.80
2023-02-12T07:48:39.140Z,7.80
2023-02-12T07:51:07.889Z,7.86
2023-02-12T07:53:35.179Z,7.85
2023-02-12T07:56:14.071Z,8.11
2023-02-12T07:58:42.012Z,8.02
2023-02-12T08:01:21.151Z,8.00
2023-02-12T08:03:49.080Z,8.06
2023-02-12T08:06:18.324Z,8.12
2023-02-12T08:08:45.835Z,8.09
2023-02-12T08:11:14.414Z,8.10
2023-02-12T08:13:44.469Z,8.25
2023-02-12T08:16:16.446Z,8.41
2023-02-12T08:18:43.455Z,8.36
2023-02-12T08:21:11.991Z,8.35
2023-02-12T08:23:38.708Z,8.35
2023-02-12T08:26:19.773Z,8.34
2023-02-12T08:28:51.750Z,8.51
2023-02-12T08:31:23.359Z,8.53
2023-02-12T08:33:50.811Z,8.57
2023-02-12T08:36:20.177Z,8.63
2023-02-12T08:38:47.342Z,8.68
2023-02-12T08:41:22.730Z,8.65
2023-02-12T08:43:50.191Z,8.64
2023-02-12T08:46:19.216Z,8.74
2023-02-12T08:48:46.042Z,8.74
2023-02-12T08:51:18.652Z,8.77
2023-02-12T08:53:47.144Z,8.84
2023-02-12T08:56:16.305Z,8.78
2023-02-12T08:58:43.492Z,8.76
2023-02-12T09:01:16.483Z,8.88
2023-02-12T09:03:44.375Z,8.92
2023-02-12T09:06:11.396Z,8.86
2023-02-12T09:08:38.978Z,8.93
2023-02-12T09:11:08.303Z,8.95
2023-02-12T09:13:36.367Z,8.92
2023-02-12T09:16:04.508Z,9.04
2023-02-12T09:18:32.053Z,9.08
2023-02-12T09:21:04.387Z,9.21
2023-02-12T09:23:31.095Z,9.15
2023-02-12T09:25:58.269Z,9.17
2023-02-12T09:28:25.378Z,9.33
2023-02-12T09:30:52.236Z,9.31
2023-02-12T09:33:18.901Z,9.39
2023-02-12T09:35:45.500Z,9.51
2023-02-12T09:38:13.166Z,9.56
2023-02-12T09:41:04.040Z,9.60
2023-02-12T09:43:38.969Z,9.68
2023-02-12T09:46:32.804Z,9.70
2023-02-12T09:49:09.269Z,9.81
2023-02-12T09:51:38.726Z,9.86
2023-02-12T09:54:08.178Z,9.92
2023-02-12T09:56:37.515Z,9.91
2023-02-12T09:59:10.980Z,9.71
2023-02-12T10:01:37.701Z,9.74
2023-02-12T10:04:06.449Z,9.82
2023-02-12T10:06:39.662Z,9.43
2023-02-12T10:09:36.604Z,9.34
2023-02-12T10:12:19.886Z,9.23
2023-02-12T10:15:24.672Z,9.63
2023-02-12T10:18:35.962Z,9.59
2023-02-12T10:21:34.370Z,9.38
2023-02-12T10:24:06.246Z,9.36
2023-02-12T10:26:39.420Z,9.58
2023-02-12T10:29:21.574Z,9.28
2023-02-12T10:32:00.798Z,9.51
2023-02-12T10:34:33.374Z,9.55
2023-02-12T10:37:05.466Z,9.63
2023-02-12T10:39:36.413Z,9.70
2023-02-12T10:42:08.329Z,9.85
2023-02-12T10:44:35.048Z,9.95
2023-02-12T10:47:02.144Z,9.88
2023-02-12T10:49:31.269Z,9.96
2023-02-12T10:52:16.621Z,9.99
2023-02-12T10:54:45.641Z,10.01
2023-02-12T10:57:24.403Z,9.92
2023-02-12T10:59:58.486Z,10.00
2023-02-12T11:02:31.082Z,10.06
2023-02-12T11:04:59.439Z,9.87
2023-02-12T11:07:28.001Z,9.93
2023-02-12T11:09:56.781Z,10.03
2023-02-12T11:12:36.203Z,10.02
2023-02-12T11:15:18.041Z,9.62
2023-02-12T11:17:57.831Z,9.82
2023-02-12T11:20:28.214Z,9.74
2023-02-12T11:22:56.616Z,9.87
2023-02-12T11:25:25.751Z,9.69
2023-02-12T11:28:06.903Z,9.84
2023-02-12T11:30:34.128Z,9.82
2023-02-12T11:33:26.142Z,9.85
2023-02-12T11:35:56.182Z,9.45
2023-02-12T11:38:29.417Z,9.70
2023-02-12T11:41:02.450Z,9.80
2023-02-12T11:43:31.179Z,9.95
2023-02-12T11:45:58.581Z,10.05
2023-02-12T11:48:38.807Z,9.75
2023-02-12T11:51:09.252Z,9.89
2023-02-12T11:53:41.316Z,9.93
2023-02-12T11:56:10.571Z,9.37
2023-02-12T11:58:37.253Z,9.74
2023-02-12T12:01:19.754Z,9.83
2023-02-12T12:04:00.359Z,9.90
2023-02-12T12:06:49.093Z,9.93
2023-02-12T12:09:35.116Z,10.07
2023-02-12T12:12:11.635Z,10.36
2023-02-12T12:15:19.485Z,10.65
2023-02-12T12:18:09.626Z,10.65
2023-02-12T12:20:46.114Z,10.74
2023-02-12T12:23:46.072Z,10.91
2023-02-12T12:26:35.156Z,10.73
2023-02-12T12:29:06.891Z,10.65
2023-02-12T12:31:36.522Z,10.73
2023-02-12T12:34:10.038Z,10.78
2023-02-12T12:36:51.963Z,10.41
2023-02-12T12:39:35.313Z,10.92
2023-02-12T12:42:19.929Z,11.00
2023-02-12T12:45:05.242Z,11.04
2023-02-12T12:47:35.888Z,11.19
2023-02-12T12:50:47.379Z,11.40
2023-02-12T12:54:11.232Z,11.50
2023-02-12T12:56:49.998Z,11.01
2023-02-12T12:59:38.112Z,11.42
2023-02-12T13:02:41.277Z,11.37
2023-02-12T13:05:14.130Z,11.42
2023-02-12T13:07:53.193Z,11.11
2023-02-12T13:10:48.966Z,11.34
2023-02-12T13:13:45.723Z,11.55
2023-02-12T13:16:21.349Z,10.70
2023-02-12T13:19:03.332Z,10.86
2023-02-12T13:21:35.703Z,11.35
2023-02-12T13:24:24.709Z,10.85
2023-02-12T13:27:08.033Z,10.95
2023-02-12T13:29:43.416Z,11.04
2023-02-12T13:32:29.904Z,11.16
2023-02-12T13:34:57.640Z,11.04
2023-02-12T13:37:35.891Z,11.43
2023-02-12T13:40:05.751Z,11.49
2023-02-12T13:42:51.260Z,11.38
2023-02-12T13:45:26.707Z,11.47
2023-02-12T13:48:12.748Z,11.46
2023-02-12T13:51:00.091Z,11.00
2023-02-12T13:53:38.461Z,11.28
2023-02-12T13:56:36.221Z,11.55
2023-02-12T13:59:03.099Z,11.73
2023-02-12T14:01:45.688Z,12.00
2023-02-12T14:04:19.741Z,11.93
2023-02-12T14:07:07.463Z,11.76
2023-02-12T14:09:36.827Z,11.85
2023-02-12T14:12:06.844Z,11.80
2023-02-12T14:14:42.586Z,11.85
2023-02-12T14:17:31.014Z,11.89
2023-02-12T14:20:23.360Z,11.89
2023-02-12T14:22:49.879Z,11.93
2023-02-12T14:25:16.450Z,11.97
2023-02-12T14:27:47.753Z,11.89
2023-02-12T14:30:14.365Z,11.75
2023-02-12T14:32:50.383Z,11.58
2023-02-12T14:35:26.220Z,11.65
2023-02-12T14:37:54.665Z,11.79
2023-02-12T14:40:33.522Z,11.60
2023-02-12T14:43:19.451Z,11.51
2023-02-12T14:45:46.088Z,11.58
2023-02-12T14:48:47.639Z,11.40
2023-02-12T14:51:25.480Z,11.49
2023-02-12T14:53:54.196Z,11.55
2023-02-12T14:56:22.752Z,11.42
2023-02-12T14:58:51.191Z,11.45
2023-02-12T15:01:18.405Z,11.37
2023-02-12T15:03:52.999Z,11.44
2023-02-12T15:06:22.417Z,11.32
2023-02-12T15:08:53.308Z,11.34
2023-02-12T15:11:41.268Z,11.27
2023-02-12T15:14:20.862Z,11.21
2023-02-12T15:17:03.867Z,11.15
2023-02-12T15:19:30.496Z,11.19
2023-02-12T15:21:57.400Z,11.25
2023-02-12T15:24:26.389Z,10.91
2023-02-12T15:26:55.527Z,11.08
2023-02-12T15:29:39.549Z,10.99
2023-02-12T15:32:08.391Z,10.97
2023-02-12T15:34:39.081Z,10.93
2023-02-12T15:37:07.748Z,10.85
2023-02-12T15:39:43.695Z,10.90
2023-02-12T15:42:33.399Z,10.82
2023-02-12T15:45:27.743Z,10.83
2023-02-12T15:48:01.714Z,10.74
2023-02-12T15:50:29.597Z,10.71
2023-02-12T15:52:56.957Z,10.68
2023-02-12T15:55:27.457Z,10.70
2023-02-12T15:57:57.197Z,10.72
2023-02-12T16:00:35.911Z,10.67
2023-02-12T16:03:02.553Z,10.61
2023-02-12T16:05:29.476Z,10.61
2023-02-12T16:07:56.195Z,10.51
2023-02-12T16:10:23.159Z,10.54
2023-02-12T16:12:50.609Z,10.45
2023-02-12T16:15:30.929Z,10.51
2023-02-12T16:17:59.917Z,10.52
2023-02-12T16:20:28.592Z,10.41
2023-02-12T16:22:55.928Z,10.42
2023-02-12T16:25:27.912Z,10.27
2023-02-12T16:28:06.396Z,10.20
2023-02-12T16:30:35.275Z,10.26
2023-02-12T16:33:02.483Z,10.31
2023-02-12T16:35:34.134Z,10.31
2023-02-12T16:38:20.984Z,10.24
2023-02-12T16:41:28.480Z,10.06
2023-02-12T16:44:01.269Z,10.23
2023-02-12T16:46:29.534Z,10.22
2023-02-12T16:48:57.640Z,10.15
2023-02-12T16:51:31.549Z,10.12
2023-02-12T16:54:00.009Z,10.15
2023-02-12T16:56:29.856Z,10.21
2023-02-12T16:58:58.618Z,10.10
2023-02-12T17:01:30.538Z,10.10
2023-02-12T17:03:58.844Z,10.09
2023-02-12T17:06:29.332Z,10.00
2023-02-12T17:08:56.855Z,9.99
2023-02-12T17:11:25.201Z,9.85
2023-02-12T17:13:53.556Z,9.94
2023-02-12T17:16:30.213Z,9.86
2023-02-12T17:18:57.391Z,9.83
2023-02-12T17:21:26.889Z,9.86
2023-02-12T17:23:56.389Z,9.87
2023-02-12T17:26:24.167Z,9.82
2023-02-12T17:28:50.951Z,9.83
2023-02-12T17:31:17.886Z,9.86
2023-02-12T17:33:44.754Z,9.79
2023-02-12T17:36:12.784Z,9.76
2023-02-12T17:38:39.640Z,9.72
2023-02-12T17:41:10.828Z,9.79
2023-02-12T17:43:37.590Z,9.75
2023-02-12T17:46:18.810Z,9.83
2023-02-12T17:48:45.596Z,9.81
2023-02-12T17:51:12.593Z,9.75
2023-02-12T17:53:42.980Z,9.83
2023-02-12T17:56:14.666Z,9.75
2023-02-12T17:58:41.959Z,9.76
2023-02-12T18:01:12.145Z,9.78
2023-02-12T18:03:39.193Z,9.80
2023-02-12T18:06:07.246Z,9.75
2023-02-12T18:08:34.060Z,9.76
2023-02-12T18:11:06.025Z,9.74
2023-02-12T18:13:32.775Z,9.71
2023-02-12T18:16:06.261Z,9.78
2023-02-12T18:18:35.090Z,9.74
2023-02-12T18:21:02.481Z,9.66
2023-02-12T18:23:29.367Z,9.69
2023-02-12T18:25:56.090Z,9.67
2023-02-12T18:28:22.899Z,9.73
2023-02-12T18:30:56.710Z,9.65
2023-02-12T18:33:24.024Z,9.68
2023-02-12T18:36:03.984Z,9.64
2023-02-12T18:38:31.082Z,9.70
2023-02-12T18:40:59.850Z,9.64
2023-02-12T18:43:27.399Z,9.63
2023-02-12T18:45:55.564Z,9.66
2023-02-12T18:48:22.387Z,9.67
2023-02-12T18:50:51.917Z,9.74
2023-02-12T18:53:18.958Z,9.68
2023-02-12T18:55:45.719Z,9.66
2023-02-12T18:58:12.655Z,9.70
2023-02-12T19:00:39.493Z,9.73
2023-02-12T19:03:06.170Z,9.67
2023-02-12T19:05:32.945Z,9.67
2023-02-12T19:08:00.315Z,9.68
2023-02-12T19:10:27.052Z,9.81
2023-02-12T19:12:53.756Z,9.91
2023-02-12T19:15:20.568Z,9.86
2023-02-12T19:17:47.215Z,9.90
2023-02-12T19:20:15.195Z,9.89
2023-02-12T19:22:42.657Z,9.89
2023-02-12T19:25:09.964Z,9.86
2023-02-12T19:27:36.728Z,9.88
2023-02-12T19:30:04.659Z,9.82
2023-02-12T19:32:31.328Z,9.90
2023-02-12T19:34:58.052Z,9.87
2023-02-12T19:37:24.788Z,9.87
2023-02-12T19:39:51.478Z,9.73
2023-02-12T19:42:18.275Z,9.79
2023-02-12T19:44:46.739Z,9.85
2023-02-12T19:47:13.542Z,9.83
2023-02-12T19:49:41.456Z,9.66
2023-02-12T19:52:08.573Z,9.76
2023-02-12T19:54:35.552Z,9.80
2023-02-12T19:57:03.450Z,9.82
2023-02-12T19:59:30.135Z,9.87
2023-02-12T20:01:56.955Z,9.72
2023-02-12T20:04:24.512Z,9.75
2023-02-12T20:06:51.388Z,9.86
2023-02-12T20:09:18.978Z,9.83
2023-02-12T20:11:45.738Z,9.85
2023-02-12T20:14:14.367Z,9.94
2023-02-12T20:16:43.837Z,9.77
2023-02-12T20:19:14.272Z,9.78
2023-02-12T20:21:41.553Z,9.84
2023-02-12T20:24:08.480Z,9.70
2023-02-12T20:26:36.544Z,9.74
2023-02-12T20:29:05.261Z,9.88
2023-02-12T20:31:34.326Z,9.85
2023-02-12T20:34:04.237Z,9.80
2023-02-12T20:36:33.236Z,9.72
2023-02-12T20:39:00.271Z,9.85
2023-02-12T20:41:28.126Z,9.81
2023-02-12T20:43:55.618Z,9.88
2023-02-12T20:46:24.292Z,9.69
2023-02-12T20:48:51.233Z,9.72
2023-02-12T20:51:22.840Z,9.75
2023-02-12T20:53:50.146Z,9.68
2023-02-12T20:56:23.596Z,9.72
2023-02-12T20:58:50.775Z,9.67
2023-02-12T21:01:21.760Z,9.73
2023-02-12T21:03:51.121Z,9.65
2023-02-12T21:06:21.166Z,9.74
2023-02-12T21:08:48.382Z,9.64
2023-02-12T21:11:23.345Z,9.61
2023-02-12T21:13:59.374Z,9.54
2023-02-12T21:16:35.284Z,9.60
2023-02-12T21:19:02.226Z,9.74
2023-02-12T21:21:31.068Z,9.68
2023-02-12T21:23:59.663Z,9.60
2023-02-12T21:26:28.301Z,9.54
2023-02-12T21:28:57.141Z,9.33
2023-02-12T21:31:26.470Z,9.55
2023-02-12T21:33:54.551Z,9.54
2023-02-12T21:36:27.018Z,9.56
2023-02-12T21:38:54.990Z,9.66
2023-02-12T21:41:27.690Z,9.56
2023-02-12T21:44:02.963Z,9.23
2023-02-12T21:46:30.419Z,9.46
2023-02-12T21:48:58.735Z,9.60
2023-02-12T21:51:31.034Z,9.35
2023-02-12T21:54:00.470Z,9.51
2023-02-12T21:56:27.833Z,9.36
2023-02-12T21:58:55.135Z,9.56
2023-02-12T22:01:23.948Z,9.53
2023-02-12T22:03:51.320Z,9.56
2023-02-12T22:06:19.347Z,9.65
2023-02-12T22:08:46.890Z,9.55
2023-02-12T22:11:14.278Z,9.61
2023-02-12T22:13:41.463Z,9.71
2023-02-12T22:16:19.502Z,9.67
2023-02-12T22:18:47.227Z,9.59
2023-02-12T22:21:15.722Z,9.60
2023-02-12T22:23:43.000Z,9.71
2023-02-12T22:26:12.441Z,9.69
2023-02-12T22:28:41.374Z,9.60
2023-02-12T22:31:09.388Z,9.62
2023-02-12T22:33:36.194Z,9.33
2023-02-12T22:36:07.486Z,9.43
2023-02-12T22:38:35.649Z,9.55
2023-02-12T22:41:03.019Z,9.38
2023-02-12T22:43:30.618Z,9.57
2023-02-12T22:45:57.334Z,9.61
2023-02-12T22:48:25.038Z,9.58
2023-02-12T22:50:51.956Z,9.56
2023-02-12T22:53:18.730Z,9.48
2023-02-12T22:55:45.405Z,9.57
2023-02-12T22:58:15.878Z,9.55
2023-02-12T23:00:43.509Z,9.58
2023-02-12T23:03:10.337Z,9.50
2023-02-12T23:05:40.150Z,9.56
2023-02-12T23:08:07.094Z,9.62
2023-02-12T23:10:33.924Z,9.60
2023-02-12T23:13:02.326Z,9.66
2023-02-12T23:15:29.592Z,9.44
2023-02-12T23:17:56.545Z,9.49
2023-02-12T23:20:24.193Z,9.50
2023-02-12T23:22:50.996Z,9.55
2023-02-12T23:25:17.739Z,9.58
2023-02-12T23:27:44.461Z,9.61
2023-02-12T23:30:11.522Z,9.65
2023-02-12T23:32:38.173Z,9.62
2023-02-12T23:35:05.080Z,9.56
2023-02-12T23:37:31.926Z,9.59
2023-02-12T23:39:58.565Z,9.57
2023-02-12T23:42:25.253Z,9.62
2023-02-12T23:44:51.952Z,9.57
2023-02-12T23:47:18.653Z,9.56
2023-02-12T23:49:45.319Z,9.60
2023-02-12T23:52:12.022Z,9.58
2023-02-12T23:54:38.669Z,9.59
2023-02-12T23:57:05.330Z,9.59
2023-02-12T23:59:32.034Z,9.59
